Time;durP1;ratioP1;P1;durP2;ratioP2;P2;SDS_P1;SDS_P2;PMS_P1;PMS_P2;Temp;Humidity;BMP_temperature;BMP_pressure;BME280_temperature;BME280_humidity;BME280_pressure;Samples;Min_cycle;Max_cycle;Signal;HPM_P1;HPM_P2
2021/01/08 00:01:25;;;;;;;2.90;2.15;;;-2.90;99.90;;;;;;4964484;28;20200;-66
2021/01/08 00:03:51;;;;;;;3.03;2.20;;;-2.90;99.90;;;;;;4969157;28;20324;-66
2021/01/08 00:06:20;;;;;;;3.33;2.08;;;-2.90;99.90;;;;;;4973141;28;20212;-65
2021/01/08 00:08:46;;;;;;;3.40;2.17;;;-2.80;99.90;;;;;;4971877;28;20196;-66
2021/01/08 00:11:19;;;;;;;2.88;1.95;;;-2.80;99.90;;;;;;4970926;28;20686;-66
2021/01/08 00:13:46;;;;;;;3.22;2.20;;;-2.90;99.90;;;;;;4968298;28;20225;-66
2021/01/08 00:16:13;;;;;;;3.45;2.17;;;-2.80;99.90;;;;;;4972698;28;20193;-65
2021/01/08 00:18:39;;;;;;;3.38;2.10;;;-2.80;99.90;;;;;;4970009;28;20220;-66
2021/01/08 00:21:04;;;;;;;2.97;2.00;;;-2.80;99.90;;;;;;4974778;28;20215;-66
2021/01/08 00:23:30;;;;;;;3.53;2.38;;;-2.80;99.90;;;;;;4969695;28;20211;-66
2021/01/08 00:25:56;;;;;;;2.92;1.98;;;-2.80;99.90;;;;;;4964103;28;20195;-66
2021/01/08 00:28:21;;;;;;;3.15;2.20;;;-2.80;99.90;;;;;;4970897;28;20191;-67
2021/01/08 00:30:47;;;;;;;4.15;2.28;;;-2.80;99.90;;;;;;4974099;28;20246;-66
2021/01/08 00:33:13;;;;;;;3.78;1.95;;;-2.80;99.90;;;;;;4964935;28;20286;-66
2021/01/08 00:35:40;;;;;;;3.65;2.22;;;-2.80;99.90;;;;;;4965606;28;20278;-66
2021/01/08 00:38:09;;;;;;;3.85;2.10;;;-2.80;99.90;;;;;;4972381;28;21037;-66
2021/01/08 00:40:35;;;;;;;3.60;2.20;;;-2.80;99.90;;;;;;4969795;28;20219;-66
2021/01/08 00:43:01;;;;;;;4.85;2.03;;;-2.80;99.90;;;;;;4972564;28;20203;-66
2021/01/08 00:45:26;;;;;;;2.30;1.90;;;-2.80;99.90;;;;;;4968235;28;20208;-66
2021/01/08 00:47:52;;;;;;;3.88;2.25;;;-2.80;99.90;;;;;;4966871;28;20199;-66
2021/01/08 00:50:18;;;;;;;3.40;2.13;;;-2.80;99.90;;;;;;4972229;28;20734;-66
2021/01/08 00:52:44;;;;;;;2.95;1.98;;;-2.80;99.90;;;;;;4973115;28;20204;-66
2021/01/08 00:55:10;;;;;;;3.15;2.40;;;-2.80;99.90;;;;;;4969225;28;20204;-66
2021/01/08 00:57:36;;;;;;;3.90;2.30;;;-2.90;99.90;;;;;;4971974;28;20218;-66
2021/01/08 01:00:05;;;;;;;3.05;2.17;;;-2.90;99.90;;;;;;4975292;28;20204;-66
2021/01/08 01:02:32;;;;;;;3.15;2.00;;;-2.90;99.90;;;;;;4969305;28;20200;-66
2021/01/08 01:04:58;;;;;;;2.67;1.88;;;-2.90;99.90;;;;;;4971906;28;20258;-66
2021/01/08 01:07:24;;;;;;;3.40;2.22;;;-2.80;99.90;;;;;;4974022;28;20234;-66
2021/01/08 01:09:49;;;;;;;3.45;2.10;;;-2.80;99.90;;;;;;4970146;28;20209;-66
2021/01/08 01:12:15;;;;;;;3.00;2.08;;;-2.90;99.90;;;;;;4959481;28;20250;-66
2021/01/08 01:14:41;;;;;;;2.90;2.13;;;-2.80;99.90;;;;;;4963470;28;20217;-66
2021/01/08 01:17:07;;;;;;;3.58;1.92;;;-2.80;99.90;;;;;;4973762;28;20419;-66
2021/01/08 01:19:32;;;;;;;2.35;1.85;;;-2.80;99.90;;;;;;4971716;28;20612;-66
2021/01/08 01:21:58;;;;;;;2.47;2.05;;;-2.80;99.90;;;;;;4976075;28;20292;-66
2021/01/08 01:24:24;;;;;;;2.97;2.08;;;-2.80;99.90;;;;;;4977319;28;20227;-66
2021/01/08 01:27:00;;;;;;;3.25;2.10;;;-2.90;99.90;;;;;;4975991;28;20199;-66
2021/01/08 01:29:25;;;;;;;2.95;1.90;;;-2.90;99.90;;;;;;4972931;28;20198;-66
2021/01/08 01:31:52;;;;;;;3.35;2.30;;;-2.90;99.90;;;;;;4972003;28;20230;-66
2021/01/08 01:34:18;;;;;;;3.72;2.17;;;-2.90;99.90;;;;;;4973832;28;20551;-66
2021/01/08 01:36:45;;;;;;;2.92;2.00;;;-3.00;99.90;;;;;;4973560;28;20209;-66
2021/01/08 01:39:12;;;;;;;3.05;2.00;;;-2.90;99.90;;;;;;4971147;28;20203;-66
2021/01/08 01:41:38;;;;;;;3.10;2.10;;;-2.90;99.90;;;;;;4975047;28;20200;-66
2021/01/08 01:44:05;;;;;;;4.00;2.30;;;-2.90;99.90;;;;;;4974131;28;20365;-66
2021/01/08 01:46:31;;;;;;;3.15;2.00;;;-2.90;99.90;;;;;;4971583;28;20192;-67
2021/01/08 01:48:57;;;;;;;2.95;1.95;;;-3.00;99.90;;;;;;4973986;28;20226;-67
2021/01/08 01:51:23;;;;;;;2.47;1.92;;;-3.00;99.90;;;;;;4975611;28;20209;-67
2021/01/08 01:53:50;;;;;;;3.35;2.10;;;-3.00;99.90;;;;;;4972006;28;21086;-66
2021/01/08 01:56:16;;;;;;;2.85;2.00;;;-2.90;99.90;;;;;;4976291;28;20200;-66
2021/01/08 01:58:42;;;;;;;2.85;1.98;;;-2.90;99.90;;;;;;4973858;28;20211;-67
2021/01/08 02:01:10;;;;;;;3.75;1.98;;;-3.00;99.90;;;;;;4984380;23;20700;-70
2021/01/08 02:03:47;;;;;;;3.25;2.03;;;-3.00;99.90;;;;;;4992584;28;20217;-70
2021/01/08 02:06:16;;;;;;;3.15;2.00;;;-3.00;99.90;;;;;;4992182;28;20207;-70
2021/01/08 02:08:57;;;;;;;3.58;2.03;;;-3.00;99.90;;;;;;4990739;28;20286;-70
2021/01/08 02:11:27;;;;;;;2.30;1.80;;;-3.00;99.90;;;;;;4993123;28;20195;-70
2021/01/08 02:14:11;;;;;;;2.97;2.13;;;-3.10;99.90;;;;;;4995765;28;20692;-70
2021/01/08 02:16:39;;;;;;;2.65;2.03;;;-3.10;99.90;;;;;;4997151;28;20215;-70
2021/01/08 02:19:08;;;;;;;2.85;2.05;;;-3.10;99.90;;;;;;4995014;28;20258;-70
2021/01/08 02:21:42;;;;;;;3.75;2.05;;;-3.10;99.90;;;;;;4995083;28;20198;-70
2021/01/08 02:24:52;;;;;;;2.65;1.90;;;-3.10;99.90;;;;;;4994414;28;20204;-70
2021/01/08 02:27:18;;;;;;;3.13;1.90;;;-3.00;99.90;;;;;;4946896;28;20207;-70
2021/01/08 02:29:44;;;;;;;4.32;2.13;;;-3.00;99.90;;;;;;4996402;28;20242;-70
2021/01/08 02:32:10;;;;;;;4.03;2.10;;;-3.10;99.90;;;;;;4992637;28;20203;-70
2021/01/08 02:34:36;;;;;;;2.88;1.95;;;-3.10;99.90;;;;;;4991349;28;20203;-69
2021/01/08 02:37:03;;;;;;;3.15;2.08;;;-3.10;99.90;;;;;;4993523;28;20207;-69
2021/01/08 02:39:29;;;;;;;2.92;2.25;;;-3.00;99.90;;;;;;4997769;28;20838;-70
2021/01/08 02:41:55;;;;;;;2.75;1.90;;;-3.00;99.90;;;;;;4997629;28;20213;-70
2021/01/08 02:44:22;;;;;;;3.20;2.00;;;-3.00;99.90;;;;;;4992149;28;20203;-70
2021/01/08 02:46:48;;;;;;;2.05;1.80;;;-2.90;99.90;;;;;;4992735;28;20222;-70
2021/01/08 02:49:13;;;;;;;2.55;1.90;;;-3.00;99.90;;;;;;4991293;28;20286;-70
2021/01/08 02:51:40;;;;;;;3.08;2.30;;;-3.00;99.90;;;;;;4994475;28;20211;-70
2021/01/08 02:54:08;;;;;;;3.33;2.08;;;-3.00;99.90;;;;;;4991915;28;20206;-69
2021/01/08 02:56:40;;;;;;;4.45;2.30;;;-3.00;99.90;;;;;;4993105;28;20737;-71
2021/01/08 02:59:08;;;;;;;3.13;2.10;;;-3.00;99.90;;;;;;4994766;28;20253;-70
2021/01/08 03:01:35;;;;;;;3.88;2.15;;;-3.00;99.90;;;;;;4992610;28;20247;-70
2021/01/08 03:04:01;;;;;;;3.60;2.10;;;-3.00;99.90;;;;;;4997114;28;20234;-70
2021/01/08 03:06:28;;;;;;;3.47;1.95;;;-3.00;99.90;;;;;;4996964;28;20209;-70
2021/01/08 03:08:56;;;;;;;3.92;2.47;;;-3.00;99.90;;;;;;4993985;28;20238;-70
2021/01/08 03:11:22;;;;;;;4.35;2.30;;;-2.90;99.90;;;;;;4994844;28;20199;-70
2021/01/08 03:13:48;;;;;;;3.25;2.13;;;-2.90;99.90;;;;;;4996425;28;20702;-70
2021/01/08 03:16:15;;;;;;;3.78;2.08;;;-3.00;99.90;;;;;;4997399;28;20201;-70
2021/01/08 03:18:41;;;;;;;3.13;2.10;;;-2.90;99.90;;;;;;4995361;28;20203;-71
2021/01/08 03:21:06;;;;;;;4.22;2.10;;;-3.00;99.90;;;;;;4994274;28;20209;-70
2021/01/08 03:23:32;;;;;;;3.42;2.30;;;-2.90;99.90;;;;;;4993724;28;20206;-70
2021/01/08 03:25:58;;;;;;;3.90;2.10;;;-2.90;99.90;;;;;;4992374;28;20199;-70
2021/01/08 03:28:24;;;;;;;4.80;2.13;;;-2.90;99.90;;;;;;4995094;28;20209;-69
2021/01/08 03:30:49;;;;;;;3.03;2.10;;;-2.90;99.90;;;;;;4990246;28;21143;-70
2021/01/08 03:33:15;;;;;;;2.40;1.98;;;-2.90;99.90;;;;;;4991582;28;20724;-67
2021/01/08 03:35:41;;;;;;;2.55;1.90;;;-2.90;99.90;;;;;;4991754;28;20214;-68
2021/01/08 03:38:06;;;;;;;2.63;1.92;;;-2.90;99.90;;;;;;4991376;28;20257;-68
2021/01/08 03:40:36;;;;;;;3.33;2.25;;;-2.90;99.90;;;;;;4991864;28;20203;-69
2021/01/08 03:43:03;;;;;;;4.97;1.98;;;-2.90;99.90;;;;;;4992841;28;20203;-68
2021/01/08 03:45:28;;;;;;;4.38;2.10;;;-2.90;99.90;;;;;;4995237;28;20253;-68
2021/01/08 03:47:54;;;;;;;2.45;1.98;;;-2.90;99.90;;;;;;4992600;28;20206;-67
2021/01/08 03:50:20;;;;;;;3.35;2.10;;;-2.90;99.90;;;;;;4997913;28;20695;-69
2021/01/08 03:52:46;;;;;;;2.50;1.92;;;-2.90;99.90;;;;;;4993517;28;20636;-69
2021/01/08 03:55:12;;;;;;;5.28;2.13;;;-2.90;99.90;;;;;;4995951;28;20207;-69
2021/01/08 03:57:37;;;;;;;2.47;1.98;;;-2.90;99.90;;;;;;4990786;28;20229;-68
2021/01/08 04:00:05;;;;;;;2.63;1.90;;;-2.90;99.90;;;;;;4992870;28;20249;-68
2021/01/08 04:02:31;;;;;;;3.35;2.10;;;-2.80;99.90;;;;;;4995482;28;20221;-69
2021/01/08 04:04:56;;;;;;;2.05;1.80;;;-2.90;99.90;;;;;;4998237;28;20198;-69
2021/01/08 04:07:22;;;;;;;3.20;2.20;;;-2.90;99.90;;;;;;4996936;28;20223;-68
2021/01/08 04:09:48;;;;;;;2.80;1.75;;;-2.80;99.90;;;;;;4995337;28;20287;-69
2021/01/08 04:12:14;;;;;;;3.55;2.10;;;-2.80;99.90;;;;;;4987960;28;20199;-69
2021/01/08 04:14:39;;;;;;;3.50;2.10;;;-2.80;99.90;;;;;;4989828;28;20208;-69
2021/01/08 04:17:05;;;;;;;4.05;2.38;;;-2.90;99.90;;;;;;4995052;28;20208;-67
2021/01/08 04:19:31;;;;;;;2.63;2.10;;;-2.80;99.90;;;;;;4989262;28;20201;-69
2021/01/08 04:21:56;;;;;;;2.55;1.90;;;-2.90;99.90;;;;;;4993332;28;20206;-69
2021/01/08 04:24:22;;;;;;;4.43;2.15;;;-2.80;99.90;;;;;;4991300;28;20319;-68
2021/01/08 04:26:48;;;;;;;4.18;2.38;;;-2.80;99.90;;;;;;4989300;28;20202;-69
2021/01/08 04:29:13;;;;;;;3.60;2.03;;;-2.80;99.90;;;;;;4991398;28;20199;-69
2021/01/08 04:31:41;;;;;;;4.53;2.40;;;-2.80;99.90;;;;;;4990647;28;20241;-68
2021/01/08 04:34:07;;;;;;;4.07;2.30;;;-2.80;99.90;;;;;;4987967;28;20200;-69
2021/01/08 04:36:33;;;;;;;3.55;2.30;;;-2.80;99.90;;;;;;4998586;28;20203;-69
2021/01/08 04:38:59;;;;;;;4.82;2.22;;;-2.90;99.90;;;;;;4994398;28;20274;-68
2021/01/08 04:41:26;;;;;;;2.95;2.03;;;-2.80;99.90;;;;;;4992978;28;20624;-67
2021/01/08 04:43:52;;;;;;;4.47;2.00;;;-2.90;99.90;;;;;;4993189;28;20768;-67
2021/01/08 04:46:27;;;;;;;2.88;1.92;;;-2.90;99.90;;;;;;4992493;28;20202;-67
2021/01/08 04:48:57;;;;;;;3.33;2.30;;;-2.80;99.90;;;;;;4990088;28;20273;-68
2021/01/08 04:51:24;;;;;;;4.03;2.20;;;-2.80;99.90;;;;;;4993572;28;20716;-67
2021/01/08 04:53:51;;;;;;;2.67;1.90;;;-2.80;99.90;;;;;;4994704;28;20198;-68
2021/01/08 04:56:21;;;;;;;3.08;2.25;;;-2.80;99.90;;;;;;4997199;28;20210;-68
2021/01/08 04:58:47;;;;;;;3.40;2.10;;;-2.80;99.90;;;;;;4994719;28;20206;-68
2021/01/08 05:01:15;;;;;;;2.88;2.10;;;-2.80;99.90;;;;;;4989696;28;20769;-69
2021/01/08 05:03:41;;;;;;;9.55;2.30;;;-2.80;99.90;;;;;;4994413;28;20293;-69
2021/01/08 05:06:06;;;;;;;5.72;1.95;;;-2.80;99.90;;;;;;4993276;28;20337;-69
2021/01/08 05:08:32;;;;;;;4.25;2.00;;;-2.80;99.90;;;;;;4988551;28;20250;-68
2021/01/08 05:11:18;;;;;;;3.88;2.15;;;-2.80;99.90;;;;;;4997559;28;20197;-67
2021/01/08 05:13:43;;;;;;;3.83;2.20;;;-2.80;99.90;;;;;;4996708;28;20261;-67
2021/01/08 05:16:09;;;;;;;2.75;1.90;;;-2.70;99.90;;;;;;4995364;28;20208;-68
2021/01/08 05:18:36;;;;;;;3.10;2.08;;;-2.70;99.90;;;;;;4994640;28;20249;-67
2021/01/08 05:21:02;;;;;;;2.55;1.90;;;-2.70;99.90;;;;;;4993459;28;20236;-69
2021/01/08 05:23:28;;;;;;;3.05;2.05;;;-2.70;99.90;;;;;;4993165;28;20282;-68
2021/01/08 05:25:54;;;;;;;5.63;2.20;;;-2.70;99.90;;;;;;4989613;28;20645;-67
2021/01/08 05:28:20;;;;;;;2.67;1.90;;;-2.70;99.90;;;;;;4992916;28;20206;-69
2021/01/08 05:30:46;;;;;;;3.22;2.03;;;-2.80;99.90;;;;;;4985247;28;20969;-67
2021/01/08 05:33:15;;;;;;;3.90;2.22;;;-2.70;99.90;;;;;;4994776;28;20215;-68
2021/01/08 05:35:44;;;;;;;3.15;2.00;;;-2.70;99.90;;;;;;4992722;28;20685;-67
2021/01/08 05:38:11;;;;;;;2.45;1.75;;;-2.70;99.90;;;;;;4991791;28;20285;-69
2021/01/08 05:40:43;;;;;;;5.60;2.40;;;-2.80;99.90;;;;;;4990942;28;20903;-69
2021/01/08 05:43:09;;;;;;;3.90;2.00;;;-2.70;99.90;;;;;;4993550;28;20211;-68
2021/01/08 05:45:35;;;;;;;3.05;2.00;;;-2.70;99.90;;;;;;4997645;28;20664;-67
2021/01/08 05:48:03;;;;;;;3.63;2.00;;;-2.70;99.90;;;;;;4997849;28;20206;-68
2021/01/08 05:50:29;;;;;;;4.00;2.30;;;-2.70;99.90;;;;;;5000523;28;20199;-68
2021/01/08 05:53:09;;;;;;;3.38;2.15;;;-2.70;99.90;;;;;;4997841;28;20211;-69
2021/01/08 05:55:44;;;;;;;2.50;2.00;;;-2.70;99.90;;;;;;5001030;28;20206;-68
2021/01/08 05:58:22;;;;;;;3.53;2.08;;;-2.70;99.90;;;;;;5000819;28;20205;-67
2021/01/08 06:01:01;;;;;;;4.05;2.05;;;-2.70;99.90;;;;;;4992712;28;20238;-68
2021/01/08 06:03:28;;;;;;;4.38;2.10;;;-2.70;99.90;;;;;;5002115;28;20709;-68
2021/01/08 06:05:56;;;;;;;3.83;2.33;;;-2.70;99.90;;;;;;4998594;28;20274;-68
2021/01/08 06:08:25;;;;;;;3.42;2.15;;;-2.70;99.90;;;;;;4999794;28;20712;-68
2021/01/08 06:10:53;;;;;;;4.93;2.20;;;-2.60;99.90;;;;;;4997307;28;20195;-68
2021/01/08 06:13:21;;;;;;;3.65;2.30;;;-2.60;99.90;;;;;;4999778;28;20608;-68
2021/01/08 06:15:49;;;;;;;3.42;2.20;;;-2.60;99.90;;;;;;4999274;28;20210;-67
2021/01/08 06:18:15;;;;;;;4.35;2.55;;;-2.70;99.90;;;;;;4997979;28;20698;-68
2021/01/08 06:20:41;;;;;;;3.00;2.20;;;-2.70;99.90;;;;;;4998048;28;20210;-68
2021/01/08 06:23:07;;;;;;;2.60;2.15;;;-2.60;99.90;;;;;;4997642;28;20211;-67
2021/01/08 06:25:33;;;;;;;2.45;1.80;;;-2.60;99.90;;;;;;4998474;28;20218;-67
2021/01/08 06:28:04;;;;;;;4.20;2.13;;;-2.60;99.90;;;;;;4998954;28;20605;-68
2021/01/08 06:30:33;;;;;;;2.95;1.88;;;-2.60;99.90;;;;;;5000174;28;20214;-68
2021/01/08 06:33:04;;;;;;;3.35;1.90;;;-2.60;99.90;;;;;;5000060;28;20195;-67
2021/01/08 06:35:31;;;;;;;3.92;2.05;;;-2.60;99.90;;;;;;4994091;28;20199;-68
2021/01/08 06:37:59;;;;;;;3.20;2.00;;;-2.60;99.90;;;;;;4996326;28;20274;-67
2021/01/08 06:40:39;;;;;;;2.95;2.13;;;-2.60;99.90;;;;;;4998895;28;20207;-68
2021/01/08 06:43:11;;;;;;;3.70;2.08;;;-2.70;99.90;;;;;;4999021;28;20210;-68
2021/01/08 06:45:36;;;;;;;3.50;2.20;;;-2.70;99.90;;;;;;4997127;28;20206;-67
2021/01/08 06:48:02;;;;;;;5.88;2.10;;;-2.60;99.90;;;;;;4998857;28;20208;-68
2021/01/08 06:50:30;;;;;;;3.22;2.20;;;-2.60;99.90;;;;;;4998252;28;20195;-68
2021/01/08 06:52:59;;;;;;;3.08;1.90;;;-2.60;99.90;;;;;;4998665;28;20195;-68
2021/01/08 06:55:31;;;;;;;3.65;2.28;;;-2.60;99.90;;;;;;5000339;28;20202;-69
2021/01/08 06:58:00;;;;;;;3.50;2.15;;;-2.60;99.90;;;;;;5000286;28;20230;-67
2021/01/08 07:00:29;;;;;;;2.42;2.13;;;-2.60;99.90;;;;;;5004080;28;20671;-68
2021/01/08 07:03:07;;;;;;;2.88;2.20;;;-2.60;99.90;;;;;;5001001;28;20276;-69
2021/01/08 07:05:33;;;;;;;3.20;2.00;;;-2.60;99.90;;;;;;5002584;28;20253;-67
2021/01/08 07:08:00;;;;;;;4.10;2.17;;;-2.60;99.90;;;;;;4995978;28;20195;-68
2021/01/08 07:10:30;;;;;;;3.03;2.00;;;-2.60;99.90;;;;;;5000239;28;20833;-68
2021/01/08 07:12:57;;;;;;;3.80;2.30;;;-2.60;99.90;;;;;;5001957;28;20681;-68
2021/01/08 07:15:25;;;;;;;3.03;2.08;;;-2.60;99.90;;;;;;4999750;28;20241;-68
2021/01/08 07:17:59;;;;;;;3.75;2.20;;;-2.50;99.90;;;;;;4997191;28;20241;-68
2021/01/08 07:20:26;;;;;;;2.97;2.15;;;-2.60;99.90;;;;;;4993923;28;20305;-67
2021/01/08 07:22:56;;;;;;;2.92;2.00;;;-2.60;99.90;;;;;;4995886;28;21303;-69
2021/01/08 07:25:25;;;;;;;3.58;2.33;;;-2.60;99.90;;;;;;4990410;28;20670;-68
2021/01/08 07:27:54;;;;;;;3.80;2.50;;;-2.60;99.90;;;;;;4994796;28;20206;-67
2021/01/08 07:30:21;;;;;;;3.70;2.22;;;-2.60;99.90;;;;;;4989543;28;20279;-67
2021/01/08 07:32:50;;;;;;;4.25;2.38;;;-2.60;99.90;;;;;;4994717;28;20206;-69
2021/01/08 07:35:31;;;;;;;4.63;2.30;;;-2.60;99.90;;;;;;4996154;28;20207;-67
2021/01/08 07:38:06;;;;;;;3.03;2.03;;;-2.60;99.90;;;;;;4993965;28;20203;-68
2021/01/08 07:40:34;;;;;;;4.10;2.42;;;-2.60;99.90;;;;;;4989596;28;20730;-69
2021/01/08 07:43:01;;;;;;;3.17;1.90;;;-2.70;99.90;;;;;;4995134;28;20241;-68
2021/01/08 07:45:44;;;;;;;2.80;2.00;;;-2.60;99.90;;;;;;4993301;28;20203;-68
2021/01/08 07:48:28;;;;;;;3.88;2.33;;;-2.60;99.90;;;;;;4990492;28;21044;-68
2021/01/08 07:51:08;;;;;;;3.88;2.17;;;-2.60;99.90;;;;;;4991386;28;20201;-67
2021/01/08 07:53:43;;;;;;;2.60;1.90;;;-2.60;99.90;;;;;;4988610;28;20203;-68
2021/01/08 07:56:08;;;;;;;3.08;1.92;;;-2.60;99.90;;;;;;4998187;28;20210;-69
2021/01/08 07:58:37;;;;;;;4.55;3.05;;;-2.60;99.90;;;;;;4998246;28;20256;-68
2021/01/08 08:01:08;;;;;;;4.25;2.75;;;-2.60;99.90;;;;;;4995285;28;20689;-69
2021/01/08 08:03:34;;;;;;;3.90;2.70;;;-2.50;99.90;;;;;;4991878;28;20223;-67
2021/01/08 08:06:02;;;;;;;3.50;2.17;;;-2.50;99.90;;;;;;4992342;28;20214;-68
2021/01/08 08:08:28;;;;;;;4.43;2.47;;;-2.50;99.90;;;;;;4996569;28;20206;-68
2021/01/08 08:11:10;;;;;;;3.80;2.33;;;-2.50;99.90;;;;;;4995928;28;20203;-66
2021/01/08 08:13:36;;;;;;;4.88;2.70;;;-2.50;99.90;;;;;;4997705;28;20306;-66
2021/01/08 08:16:02;;;;;;;2.85;2.17;;;-2.60;99.90;;;;;;5000226;28;20692;-68
2021/01/08 08:18:28;;;;;;;4.45;2.83;;;-2.50;99.90;;;;;;4996174;28;20199;-68
2021/01/08 08:21:10;;;;;;;5.00;2.78;;;-2.50;99.90;;;;;;4996982;28;20611;-68
2021/01/08 08:23:36;;;;;;;7.40;3.35;;;-2.50;99.90;;;;;;4993522;28;20218;-67
2021/01/08 08:26:02;;;;;;;11.07;4.65;;;-2.50;99.90;;;;;;4996696;28;20195;-67
2021/01/08 08:28:28;;;;;;;4.60;2.45;;;-2.50;99.90;;;;;;4996442;28;20298;-68
2021/01/08 08:30:53;;;;;;;6.28;3.22;;;-2.50;99.90;;;;;;4994705;28;20282;-68
2021/01/08 08:33:22;;;;;;;6.53;2.88;;;-2.40;99.90;;;;;;5001173;28;20202;-67
2021/01/08 08:35:49;;;;;;;5.40;2.50;;;-2.40;99.90;;;;;;4994028;28;20253;-68
2021/01/08 08:38:15;;;;;;;5.15;2.75;;;-2.50;99.90;;;;;;4989622;28;20700;-68
2021/01/08 08:40:41;;;;;;;7.20;3.25;;;-2.50;99.90;;;;;;4995929;28;20241;-68
2021/01/08 08:43:08;;;;;;;4.07;2.60;;;-2.50;99.90;;;;;;4997595;28;20206;-68
2021/01/08 08:45:34;;;;;;;4.47;2.30;;;-2.50;99.90;;;;;;4995410;28;20195;-68
2021/01/08 08:48:05;;;;;;;4.07;2.33;;;-2.40;99.90;;;;;;4999264;28;20207;-68
2021/01/08 08:50:33;;;;;;;4.28;2.42;;;-2.50;99.90;;;;;;4996998;28;20205;-68
2021/01/08 08:53:09;;;;;;;6.22;3.25;;;-2.50;99.90;;;;;;4996731;28;20223;-67
2021/01/08 08:55:34;;;;;;;4.88;2.92;;;-2.40;99.90;;;;;;4995748;28;20275;-69
2021/01/08 08:58:10;;;;;;;4.90;3.00;;;-2.40;99.90;;;;;;4999081;28;20203;-68
2021/01/08 09:00:38;;;;;;;4.15;2.40;;;-2.30;99.90;;;;;;4999661;28;20268;-68
2021/01/08 09:03:17;;;;;;;3.97;2.25;;;-2.30;99.90;;;;;;4999174;28;20213;-68
2021/01/08 09:05:43;;;;;;;5.35;2.80;;;-2.40;99.90;;;;;;4997387;28;20201;-67
2021/01/08 09:08:21;;;;;;;5.18;2.30;;;-2.40;99.90;;;;;;4994367;28;20194;-69
2021/01/08 09:11:25;;;;;;;4.03;2.55;;;-2.40;99.90;;;;;;4999247;28;20205;-68
2021/01/08 09:13:58;;;;;;;4.28;2.45;;;-2.30;99.90;;;;;;4991270;28;20313;-68
2021/01/08 09:16:34;;;;;;;5.22;2.70;;;-2.30;99.90;;;;;;4997390;28;20245;-68
2021/01/08 09:19:16;;;;;;;5.55;2.63;;;-2.30;99.90;;;;;;4996123;28;20203;-68
2021/01/08 09:21:48;;;;;;;3.70;2.33;;;-2.20;99.90;;;;;;5001077;28;20245;-68
2021/01/08 09:24:21;;;;;;;13.02;2.63;;;-2.30;99.90;;;;;;5001768;28;20245;-68
2021/01/08 09:26:47;;;;;;;5.47;3.10;;;-2.20;99.90;;;;;;5002123;28;20198;-69
2021/01/08 09:29:28;;;;;;;6.72;3.00;;;-2.30;99.90;;;;;;5005137;28;20886;-69
2021/01/08 09:31:56;;;;;;;7.03;3.50;;;-2.20;99.90;;;;;;5001966;28;20200;-68
2021/01/08 09:34:23;;;;;;;5.93;3.20;;;-2.20;99.90;;;;;;4996430;28;20798;-68
2021/01/08 09:36:49;;;;;;;5.13;3.00;;;-2.20;99.90;;;;;;5000282;28;20201;-67
2021/01/08 09:39:15;;;;;;;3.25;2.33;;;-2.20;99.90;;;;;;4999658;28;20285;-68
2021/01/08 09:41:42;;;;;;;4.35;2.70;;;-2.10;99.90;;;;;;5000994;28;20198;-67
2021/01/08 09:44:12;;;;;;;4.53;2.38;;;-2.00;99.90;;;;;;5001000;28;20206;-69
2021/01/08 09:46:58;;;;;;;5.18;2.35;;;-1.90;99.90;;;;;;4998892;28;20195;-68
2021/01/08 09:49:45;;;;;;;4.22;2.72;;;-1.80;99.90;;;;;;4997963;28;20673;-68
2021/01/08 09:52:12;;;;;;;17.17;2.17;;;-1.70;99.90;;;;;;5001403;28;20910;-69
2021/01/08 09:54:49;;;;;;;3.35;2.30;;;-1.60;99.90;;;;;;4994504;28;20194;-69
2021/01/08 09:57:28;;;;;;;2.90;2.10;;;-1.60;99.90;;;;;;4995778;28;20500;-69
2021/01/08 10:00:06;;;;;;;4.65;2.40;;;-1.50;99.90;;;;;;4999677;28;20253;-68
2021/01/08 10:02:42;;;;;;;11.43;4.70;;;-1.50;99.90;;;;;;5000885;28;20227;-68
2021/01/08 10:05:24;;;;;;;7.95;3.90;;;-1.40;99.90;;;;;;5002000;28;20766;-68
2021/01/08 10:07:51;;;;;;;11.73;4.65;;;-1.30;99.90;;;;;;4997414;28;21923;-68
2021/01/08 10:10:25;;;;;;;4.93;2.70;;;-1.30;99.90;;;;;;5000910;28;20551;-68
2021/01/08 10:12:53;;;;;;;8.75;3.55;;;-1.30;99.90;;;;;;4996520;28;20207;-68
2021/01/08 10:15:32;;;;;;;7.18;3.47;;;-1.30;99.90;;;;;;4999542;28;20222;-69
2021/01/08 10:18:10;;;;;;;18.17;7.22;;;-1.30;99.90;;;;;;5002818;28;20826;-68
2021/01/08 10:20:52;;;;;;;5.07;2.90;;;-1.40;99.90;;;;;;5000571;28;20218;-68
2021/01/08 10:23:20;;;;;;;3.92;2.60;;;-1.40;99.90;;;;;;4996687;28;20214;-68
2021/01/08 10:25:46;;;;;;;5.10;2.90;;;-1.40;99.90;;;;;;4997594;28;20290;-68
2021/01/08 10:28:23;;;;;;;8.20;3.28;;;-1.40;99.90;;;;;;4992900;28;20769;-68
2021/01/08 10:30:51;;;;;;;11.50;4.93;;;-1.50;99.90;;;;;;4999825;28;20190;-68
2021/01/08 10:33:17;;;;;;;9.18;4.55;;;-1.50;99.90;;;;;;4996940;28;20218;-68
2021/01/08 10:35:51;;;;;;;7.97;3.85;;;-1.60;99.90;;;;;;5000162;28;20680;-68
2021/01/08 10:38:17;;;;;;;5.57;3.08;;;-1.60;99.90;;;;;;5004733;28;20654;-68
2021/01/08 10:40:43;;;;;;;5.10;2.90;;;-1.60;99.90;;;;;;4997502;28;20210;-70
2021/01/08 10:43:09;;;;;;;4.25;2.40;;;-1.70;99.90;;;;;;5001582;28;20213;-67
2021/01/08 10:45:36;;;;;;;5.10;2.33;;;-1.60;99.90;;;;;;5000225;28;20204;-68
2021/01/08 10:48:02;;;;;;;9.00;2.40;;;-1.60;99.90;;;;;;4999979;28;20206;-68
2021/01/08 10:50:28;;;;;;;4.85;2.55;;;-1.60;99.90;;;;;;4996405;28;20231;-68
2021/01/08 10:52:54;;;;;;;3.75;2.45;;;-1.70;99.90;;;;;;4997969;28;20252;-68
2021/01/08 10:55:20;;;;;;;4.75;2.58;;;-1.70;99.90;;;;;;4995969;28;20245;-68
2021/01/08 10:57:45;;;;;;;4.72;2.28;;;-1.70;99.90;;;;;;4998461;28;20203;-68
2021/01/08 11:00:13;;;;;;;4.07;2.40;;;-1.70;99.90;;;;;;4996693;28;20212;-68
2021/01/08 11:02:40;;;;;;;6.38;3.45;;;-1.70;99.90;;;;;;4994609;28;20260;-68
2021/01/08 11:05:06;;;;;;;4.05;2.60;;;-1.60;99.90;;;;;;4993312;28;20245;-68
2021/01/08 11:07:35;;;;;;;4.05;2.30;;;-1.60;99.90;;;;;;4999924;28;20187;-68
2021/01/08 11:10:05;;;;;;;4.07;2.30;;;-1.60;99.90;;;;;;4996509;28;20195;-69
2021/01/08 11:12:34;;;;;;;7.45;2.78;;;-1.70;99.90;;;;;;4999636;28;20228;-69
2021/01/08 11:15:01;;;;;;;4.03;2.75;;;-1.70;99.90;;;;;;4995844;28;20210;-68
2021/01/08 11:17:27;;;;;;;4.25;2.63;;;-1.70;99.90;;;;;;4995542;28;20195;-68
2021/01/08 11:19:52;;;;;;;4.07;2.40;;;-1.70;99.90;;;;;;4996848;28;20627;-69
2021/01/08 11:22:18;;;;;;;4.13;2.40;;;-1.70;99.90;;;;;;4995218;28;20207;-68
2021/01/08 11:24:44;;;;;;;5.47;2.67;;;-1.80;99.90;;;;;;4992070;28;20257;-69
2021/01/08 11:27:09;;;;;;;5.63;2.70;;;-1.80;99.90;;;;;;4991106;28;20222;-68
2021/01/08 11:29:35;;;;;;;5.07;2.60;;;-1.80;99.90;;;;;;4991787;28;20223;-68
2021/01/08 11:32:01;;;;;;;5.43;2.88;;;-1.80;99.90;;;;;;4992085;28;20326;-68
2021/01/08 11:34:27;;;;;;;9.50;3.67;;;-1.80;99.90;;;;;;4996217;28;20620;-69
2021/01/08 11:36:56;;;;;;;7.93;3.20;;;-1.80;99.90;;;;;;5001630;28;20199;-68
2021/01/08 11:39:23;;;;;;;4.97;2.78;;;-1.90;99.90;;;;;;4998160;28;20191;-69
2021/01/08 11:41:53;;;;;;;6.47;3.20;;;-1.90;99.90;;;;;;4991768;28;20613;-69
2021/01/08 11:44:19;;;;;;;13.25;3.83;;;-1.90;99.90;;;;;;4992576;28;21000;-69
2021/01/08 11:46:44;;;;;;;13.60;4.57;;;-1.90;99.90;;;;;;4990618;28;20286;-68
2021/01/08 11:49:10;;;;;;;16.10;5.50;;;-2.00;99.90;;;;;;4996337;28;20198;-68
2021/01/08 11:51:35;;;;;;;17.60;4.90;;;-2.00;99.90;;;;;;4994076;28;20204;-68
2021/01/08 11:54:01;;;;;;;10.50;3.78;;;-2.10;99.90;;;;;;4993449;28;20273;-68
2021/01/08 11:56:29;;;;;;;9.00;3.67;;;-2.10;99.90;;;;;;4999283;28;20252;-68
2021/01/08 11:58:55;;;;;;;8.73;3.35;;;-2.10;99.90;;;;;;4997985;28;20692;-67
2021/01/08 12:01:24;;;;;;;5.32;2.85;;;-2.00;99.90;;;;;;4999179;28;20230;-68
2021/01/08 12:03:50;;;;;;;5.82;3.20;;;-2.10;99.90;;;;;;4995137;28;20211;-68
2021/01/08 12:06:17;;;;;;;7.85;3.42;;;-2.10;99.90;;;;;;5000497;28;20257;-68
2021/01/08 12:08:43;;;;;;;4.65;2.45;;;-2.10;99.90;;;;;;4999290;28;20221;-68
2021/01/08 12:11:08;;;;;;;3.55;2.30;;;-2.10;99.90;;;;;;4995628;28;20199;-67
2021/01/08 12:13:34;;;;;;;4.45;2.42;;;-2.10;99.90;;;;;;4998624;28;20207;-67
2021/01/08 12:16:00;;;;;;;3.67;2.47;;;-2.10;99.90;;;;;;4997616;28;20202;-68
2021/01/08 12:18:25;;;;;;;3.67;2.40;;;-2.20;99.90;;;;;;4999530;28;20256;-69
2021/01/08 12:20:51;;;;;;;4.32;2.35;;;-2.20;99.90;;;;;;4999410;28;20195;-68
2021/01/08 12:23:17;;;;;;;4.38;2.42;;;-2.20;99.90;;;;;;4996145;28;20207;-68
2021/01/08 12:25:43;;;;;;;2.97;2.13;;;-2.20;99.90;;;;;;4996917;28;20206;-68
2021/01/08 12:28:10;;;;;;;4.25;2.25;;;-2.20;99.90;;;;;;5000706;28;20202;-68
2021/01/08 12:30:36;;;;;;;4.72;2.60;;;-2.30;99.90;;;;;;4992577;28;20211;-68
2021/01/08 12:33:03;;;;;;;3.33;2.28;;;-2.20;99.90;;;;;;4993828;28;20857;-69
2021/01/08 12:35:30;;;;;;;5.30;2.55;;;-2.20;99.90;;;;;;4994516;28;20209;-67
2021/01/08 12:37:56;;;;;;;4.45;2.70;;;-2.20;99.90;;;;;;4996533;28;20309;-68
2021/01/08 12:40:23;;;;;;;3.70;2.47;;;-2.10;99.90;;;;;;4994570;28;20214;-68
2021/01/08 12:42:50;;;;;;;4.00;2.50;;;-2.10;99.90;;;;;;4995269;28;20217;-68
2021/01/08 12:45:20;;;;;;;4.35;2.50;;;-2.00;99.90;;;;;;4995117;28;20198;-67
2021/01/08 12:47:46;;;;;;;5.85;2.33;;;-1.90;99.90;;;;;;4994832;28;20226;-68
2021/01/08 12:50:13;;;;;;;3.03;2.10;;;-1.90;99.90;;;;;;4997741;28;20662;-67
2021/01/08 12:52:39;;;;;;;3.42;2.10;;;-1.80;99.90;;;;;;4994242;28;20922;-67